sensor_id;sensor_type;location;lat;lon;timestamp;P1;durP1;ratioP1;P2;durP2;ratioP2
40867;SDS011;26586;50.708;22.412;2023-04-06T00:04:43;6.30;;;2.78;;
40867;SDS011;26586;50.708;22.412;2023-04-06T00:07:09;4.70;;;3.00;;
40867;SDS011;26586;50.708;22.412;2023-04-06T00:09:36;6.10;;;2.70;;
40867;SDS011;26586;50.708;22.412;2023-04-06T00:12:02;6.03;;;2.85;;
40867;SDS011;26586;50.708;22.412;2023-04-06T00:14:28;4.00;;;2.50;;
40867;SDS011;26586;50.708;22.412;2023-04-06T00:16:55;5.38;;;2.63;;
40867;SDS011;26586;50.708;22.412;2023-04-06T00:21:47;9.00;;;3.00;;
40867;SDS011;26586;50.708;22.412;2023-04-06T00:24:14;4.82;;;2.42;;
40867;SDS011;26586;50.708;22.412;2023-04-06T00:26:40;6.15;;;2.45;;
40867;SDS011;26586;50.708;22.412;2023-04-06T00:29:06;5.88;;;3.00;;
40867;SDS011;26586;50.708;22.412;2023-04-06T00:31:32;4.47;;;2.45;;
40867;SDS011;26586;50.708;22.412;2023-04-06T00:33:58;3.85;;;2.70;;
40867;SDS011;26586;50.708;22.412;2023-04-06T00:36:24;4.00;;;2.83;;
40867;SDS011;26586;50.708;22.412;2023-04-06T00:38:51;3.90;;;2.45;;
40867;SDS011;26586;50.708;22.412;2023-04-06T00:41:17;4.15;;;2.00;;
40867;SDS011;26586;50.708;22.412;2023-04-06T00:43:44;4.95;;;2.72;;
40867;SDS011;26586;50.708;22.412;2023-04-06T00:46:10;4.15;;;2.47;;
40867;SDS011;26586;50.708;22.412;2023-04-06T00:48:36;3.50;;;2.03;;
40867;SDS011;26586;50.708;22.412;2023-04-06T00:51:03;4.30;;;2.07;;
40867;SDS011;26586;50.708;22.412;2023-04-06T00:53:29;5.37;;;2.83;;
40867;SDS011;26586;50.708;22.412;2023-04-06T00:58:31;4.32;;;2.50;;
40867;SDS011;26586;50.708;22.412;2023-04-06T01:00:57;4.23;;;2.27;;
40867;SDS011;26586;50.708;22.412;2023-04-06T01:03:23;3.83;;;2.20;;
40867;SDS011;26586;50.708;22.412;2023-04-06T01:05:50;3.27;;;2.27;;
40867;SDS011;26586;50.708;22.412;2023-04-06T01:08:20;4.55;;;2.20;;
40867;SDS011;26586;50.708;22.412;2023-04-06T01:10:47;3.35;;;1.92;;
40867;SDS011;26586;50.708;22.412;2023-04-06T01:13:13;4.25;;;2.03;;
40867;SDS011;26586;50.708;22.412;2023-04-06T01:15:39;3.53;;;2.00;;
40867;SDS011;26586;50.708;22.412;2023-04-06T01:18:07;3.75;;;2.22;;
40867;SDS011;26586;50.708;22.412;2023-04-06T01:20:36;3.55;;;2.00;;
40867;SDS011;26586;50.708;22.412;2023-04-06T01:23:02;3.47;;;1.95;;
40867;SDS011;26586;50.708;22.412;2023-04-06T01:25:28;5.80;;;2.07;;
40867;SDS011;26586;50.708;22.412;2023-04-06T01:27:54;5.03;;;2.30;;
40867;SDS011;26586;50.708;22.412;2023-04-06T01:30:21;3.22;;;2.10;;
40867;SDS011;26586;50.708;22.412;2023-04-06T01:32:47;4.65;;;2.78;;
40867;SDS011;26586;50.708;22.412;2023-04-06T01:35:13;4.35;;;2.42;;
40867;SDS011;26586;50.708;22.412;2023-04-06T01:37:39;3.85;;;1.98;;
40867;SDS011;26586;50.708;22.412;2023-04-06T01:40:06;4.32;;;2.22;;
40867;SDS011;26586;50.708;22.412;2023-04-06T01:42:35;4.30;;;1.90;;
40867;SDS011;26586;50.708;22.412;2023-04-06T01:45:01;4.23;;;2.37;;
40867;SDS011;26586;50.708;22.412;2023-04-06T01:47:27;4.68;;;2.42;;
40867;SDS011;26586;50.708;22.412;2023-04-06T01:49:54;4.40;;;1.73;;
40867;SDS011;26586;50.708;22.412;2023-04-06T01:52:20;4.35;;;2.03;;
40867;SDS011;26586;50.708;22.412;2023-04-06T01:54:46;5.55;;;2.20;;
40867;SDS011;26586;50.708;22.412;2023-04-06T01:57:12;3.60;;;1.88;;
40867;SDS011;26586;50.708;22.412;2023-04-06T01:59:39;3.60;;;1.70;;
40867;SDS011;26586;50.708;22.412;2023-04-06T02:02:05;3.53;;;2.20;;
40867;SDS011;26586;50.708;22.412;2023-04-06T02:04:31;4.05;;;1.88;;
40867;SDS011;26586;50.708;22.412;2023-04-06T02:06:57;4.05;;;2.22;;
40867;SDS011;26586;50.708;22.412;2023-04-06T02:09:23;3.90;;;2.00;;
40867;SDS011;26586;50.708;22.412;2023-04-06T02:11:49;2.80;;;2.00;;
40867;SDS011;26586;50.708;22.412;2023-04-06T02:14:16;5.30;;;2.25;;
40867;SDS011;26586;50.708;22.412;2023-04-06T02:16:42;3.45;;;1.95;;
40867;SDS011;26586;50.708;22.412;2023-04-06T02:19:08;4.30;;;1.80;;
40867;SDS011;26586;50.708;22.412;2023-04-06T02:21:34;3.13;;;1.85;;
40867;SDS011;26586;50.708;22.412;2023-04-06T02:24:01;3.67;;;2.10;;
40867;SDS011;26586;50.708;22.412;2023-04-06T02:26:27;3.55;;;1.95;;
40867;SDS011;26586;50.708;22.412;2023-04-06T02:28:53;3.10;;;1.67;;
40867;SDS011;26586;50.708;22.412;2023-04-06T02:31:19;4.85;;;2.30;;
40867;SDS011;26586;50.708;22.412;2023-04-06T02:33:46;3.63;;;1.83;;
40867;SDS011;26586;50.708;22.412;2023-04-06T02:36:12;2.78;;;1.80;;
40867;SDS011;26586;50.708;22.412;2023-04-06T02:38:38;4.18;;;1.60;;
40867;SDS011;26586;50.708;22.412;2023-04-06T02:41:04;3.45;;;2.17;;
40867;SDS011;26586;50.708;22.412;2023-04-06T02:43:30;4.40;;;1.85;;
40867;SDS011;26586;50.708;22.412;2023-04-06T02:45:57;6.40;;;2.97;;
40867;SDS011;26586;50.708;22.412;2023-04-06T02:48:24;3.38;;;2.08;;
40867;SDS011;26586;50.708;22.412;2023-04-06T02:50:50;3.90;;;1.63;;
40867;SDS011;26586;50.708;22.412;2023-04-06T02:53:16;4.28;;;1.92;;
40867;SDS011;26586;50.708;22.412;2023-04-06T02:55:43;3.10;;;1.95;;
40867;SDS011;26586;50.708;22.412;2023-04-06T02:58:09;3.53;;;1.83;;
40867;SDS011;26586;50.708;22.412;2023-04-06T03:00:35;3.58;;;1.73;;
40867;SDS011;26586;50.708;22.412;2023-04-06T03:03:02;2.88;;;1.70;;
40867;SDS011;26586;50.708;22.412;2023-04-06T03:05:29;3.00;;;2.10;;
40867;SDS011;26586;50.708;22.412;2023-04-06T03:07:56;2.92;;;2.05;;
40867;SDS011;26586;50.708;22.412;2023-04-06T03:10:22;3.42;;;2.08;;
40867;SDS011;26586;50.708;22.412;2023-04-06T03:12:48;3.85;;;1.80;;
40867;SDS011;26586;50.708;22.412;2023-04-06T03:15:14;4.82;;;2.10;;
40867;SDS011;26586;50.708;22.412;2023-04-06T03:17:41;3.88;;;1.88;;
40867;SDS011;26586;50.708;22.412;2023-04-06T03:20:07;2.30;;;1.70;;
40867;SDS011;26586;50.708;22.412;2023-04-06T03:22:33;5.68;;;1.92;;
40867;SDS011;26586;50.708;22.412;2023-04-06T03:24:59;3.95;;;1.98;;
40867;SDS011;26586;50.708;22.412;2023-04-06T03:27:26;4.03;;;2.05;;
40867;SDS011;26586;50.708;22.412;2023-04-06T03:29:52;3.10;;;1.70;;
40867;SDS011;26586;50.708;22.412;2023-04-06T03:32:18;3.97;;;2.17;;
40867;SDS011;26586;50.708;22.412;2023-04-06T03:34:44;4.68;;;2.22;;
40867;SDS011;26586;50.708;22.412;2023-04-06T03:37:10;4.40;;;1.90;;
40867;SDS011;26586;50.708;22.412;2023-04-06T03:39:36;3.13;;;1.70;;
40867;SDS011;26586;50.708;22.412;2023-04-06T03:42:03;4.10;;;2.10;;
40867;SDS011;26586;50.708;22.412;2023-04-06T03:44:29;3.90;;;1.83;;
40867;SDS011;26586;50.708;22.412;2023-04-06T03:46:56;3.92;;;1.75;;
40867;SDS011;26586;50.708;22.412;2023-04-06T03:49:22;2.65;;;1.90;;
40867;SDS011;26586;50.708;22.412;2023-04-06T03:51:48;3.17;;;1.67;;
40867;SDS011;26586;50.708;22.412;2023-04-06T03:54:14;3.35;;;1.50;;
40867;SDS011;26586;50.708;22.412;2023-04-06T03:56:41;3.27;;;1.60;;
40867;SDS011;26586;50.708;22.412;2023-04-06T03:59:07;3.70;;;1.90;;
40867;SDS011;26586;50.708;22.412;2023-04-06T04:01:33;4.40;;;1.80;;
40867;SDS011;26586;50.708;22.412;2023-04-06T04:03:59;2.47;;;1.38;;
40867;SDS011;26586;50.708;22.412;2023-04-06T04:06:26;3.38;;;1.73;;
40867;SDS011;26586;50.708;22.412;2023-04-06T04:08:52;3.63;;;1.95;;
40867;SDS011;26586;50.708;22.412;2023-04-06T04:11:18;4.37;;;1.97;;
40867;SDS011;26586;50.708;22.412;2023-04-06T04:13:45;4.80;;;2.45;;
40867;SDS011;26586;50.708;22.412;2023-04-06T04:16:11;7.90;;;3.42;;
40867;SDS011;26586;50.708;22.412;2023-04-06T04:18:37;5.00;;;2.60;;
40867;SDS011;26586;50.708;22.412;2023-04-06T04:21:04;9.13;;;3.53;;
40867;SDS011;26586;50.708;22.412;2023-04-06T04:23:30;7.10;;;2.90;;
40867;SDS011;26586;50.708;22.412;2023-04-06T04:25:56;6.88;;;3.50;;
40867;SDS011;26586;50.708;22.412;2023-04-06T04:28:22;5.20;;;2.77;;
40867;SDS011;26586;50.708;22.412;2023-04-06T04:30:49;4.18;;;2.45;;
40867;SDS011;26586;50.708;22.412;2023-04-06T04:33:15;4.63;;;2.55;;
40867;SDS011;26586;50.708;22.412;2023-04-06T04:35:41;5.78;;;2.60;;
40867;SDS011;26586;50.708;22.412;2023-04-06T04:38:07;5.38;;;2.70;;
40867;SDS011;26586;50.708;22.412;2023-04-06T04:40:34;4.90;;;2.88;;
40867;SDS011;26586;50.708;22.412;2023-04-06T04:43:00;5.63;;;3.10;;
40867;SDS011;26586;50.708;22.412;2023-04-06T04:45:26;3.63;;;2.08;;
40867;SDS011;26586;50.708;22.412;2023-04-06T04:47:52;4.25;;;2.03;;
40867;SDS011;26586;50.708;22.412;2023-04-06T04:50:18;5.00;;;3.00;;
40867;SDS011;26586;50.708;22.412;2023-04-06T04:52:44;6.05;;;2.97;;
40867;SDS011;26586;50.708;22.412;2023-04-06T04:55:11;5.40;;;2.63;;
40867;SDS011;26586;50.708;22.412;2023-04-06T04:57:37;4.78;;;2.40;;
40867;SDS011;26586;50.708;22.412;2023-04-06T05:00:03;4.63;;;2.90;;
40867;SDS011;26586;50.708;22.412;2023-04-06T05:02:30;6.55;;;3.90;;
40867;SDS011;26586;50.708;22.412;2023-04-06T05:04:56;5.43;;;2.95;;
40867;SDS011;26586;50.708;22.412;2023-04-06T05:07:22;4.45;;;2.33;;
40867;SDS011;26586;50.708;22.412;2023-04-06T05:09:49;5.93;;;4.10;;
40867;SDS011;26586;50.708;22.412;2023-04-06T05:12:15;4.10;;;2.38;;
40867;SDS011;26586;50.708;22.412;2023-04-06T05:14:41;7.07;;;3.10;;
40867;SDS011;26586;50.708;22.412;2023-04-06T05:17:07;2.70;;;1.98;;
40867;SDS011;26586;50.708;22.412;2023-04-06T05:19:34;4.57;;;2.72;;
40867;SDS011;26586;50.708;22.412;2023-04-06T05:22:00;4.57;;;2.60;;
40867;SDS011;26586;50.708;22.412;2023-04-06T05:24:27;3.42;;;2.10;;
40867;SDS011;26586;50.708;22.412;2023-04-06T05:26:53;5.80;;;3.15;;
40867;SDS011;26586;50.708;22.412;2023-04-06T05:29:19;3.87;;;2.33;;
40867;SDS011;26586;50.708;22.412;2023-04-06T05:31:46;5.30;;;2.80;;
40867;SDS011;26586;50.708;22.412;2023-04-06T05:34:12;3.50;;;1.90;;
40867;SDS011;26586;50.708;22.412;2023-04-06T05:36:38;5.13;;;2.30;;
40867;SDS011;26586;50.708;22.412;2023-04-06T05:41:32;3.95;;;2.35;;
40867;SDS011;26586;50.708;22.412;2023-04-06T05:43:59;4.53;;;2.97;;
40867;SDS011;26586;50.708;22.412;2023-04-06T05:46:25;5.95;;;2.40;;
40867;SDS011;26586;50.708;22.412;2023-04-06T05:48:51;2.85;;;1.83;;
40867;SDS011;26586;50.708;22.412;2023-04-06T05:51:17;4.68;;;2.00;;
40867;SDS011;26586;50.708;22.412;2023-04-06T05:53:44;2.85;;;1.88;;
40867;SDS011;26586;50.708;22.412;2023-04-06T05:56:10;3.10;;;1.90;;
40867;SDS011;26586;50.708;22.412;2023-04-06T05:58:36;2.95;;;1.67;;
40867;SDS011;26586;50.708;22.412;2023-04-06T06:01:02;4.18;;;2.13;;
40867;SDS011;26586;50.708;22.412;2023-04-06T06:03:30;3.95;;;2.13;;
40867;SDS011;26586;50.708;22.412;2023-04-06T06:06:02;3.45;;;2.05;;
40867;SDS011;26586;50.708;22.412;2023-04-06T06:08:29;3.30;;;2.08;;
40867;SDS011;26586;50.708;22.412;2023-04-06T06:10:56;3.85;;;2.03;;
40867;SDS011;26586;50.708;22.412;2023-04-06T06:13:23;4.03;;;1.97;;
40867;SDS011;26586;50.708;22.412;2023-04-06T06:15:49;3.17;;;2.30;;
40867;SDS011;26586;50.708;22.412;2023-04-06T06:18:16;5.10;;;2.50;;
40867;SDS011;26586;50.708;22.412;2023-04-06T06:20:42;4.25;;;2.08;;
40867;SDS011;26586;50.708;22.412;2023-04-06T06:23:08;4.82;;;3.38;;
40867;SDS011;26586;50.708;22.412;2023-04-06T06:25:34;6.40;;;3.00;;
40867;SDS011;26586;50.708;22.412;2023-04-06T06:28:01;6.85;;;2.72;;
40867;SDS011;26586;50.708;22.412;2023-04-06T06:30:27;4.30;;;2.22;;
40867;SDS011;26586;50.708;22.412;2023-04-06T06:32:53;6.78;;;3.80;;
40867;SDS011;26586;50.708;22.412;2023-04-06T06:35:19;5.07;;;2.80;;
40867;SDS011;26586;50.708;22.412;2023-04-06T06:37:46;4.13;;;2.70;;
40867;SDS011;26586;50.708;22.412;2023-04-06T06:40:12;5.25;;;3.17;;
40867;SDS011;26586;50.708;22.412;2023-04-06T06:42:38;8.60;;;4.07;;
40867;SDS011;26586;50.708;22.412;2023-04-06T06:45:07;4.65;;;2.72;;
40867;SDS011;26586;50.708;22.412;2023-04-06T06:47:33;5.43;;;3.30;;
40867;SDS011;26586;50.708;22.412;2023-04-06T06:49:59;6.68;;;3.95;;
40867;SDS011;26586;50.708;22.412;2023-04-06T06:52:26;6.25;;;3.28;;
40867;SDS011;26586;50.708;22.412;2023-04-06T06:54:54;7.80;;;3.88;;
40867;SDS011;26586;50.708;22.412;2023-04-06T06:57:21;7.43;;;4.60;;
40867;SDS011;26586;50.708;22.412;2023-04-06T06:59:47;8.63;;;5.35;;
40867;SDS011;26586;50.708;22.412;2023-04-06T07:02:14;8.13;;;5.77;;
40867;SDS011;26586;50.708;22.412;2023-04-06T07:04:40;13.27;;;6.40;;
40867;SDS011;26586;50.708;22.412;2023-04-06T07:07:06;6.95;;;4.15;;
40867;SDS011;26586;50.708;22.412;2023-04-06T07:09:33;7.68;;;4.72;;
40867;SDS011;26586;50.708;22.412;2023-04-06T07:12:00;8.80;;;4.90;;
40867;SDS011;26586;50.708;22.412;2023-04-06T07:14:27;5.03;;;3.78;;
40867;SDS011;26586;50.708;22.412;2023-04-06T07:16:53;6.32;;;3.10;;
40867;SDS011;26586;50.708;22.412;2023-04-06T07:19:19;8.05;;;5.05;;
40867;SDS011;26586;50.708;22.412;2023-04-06T07:21:46;8.07;;;4.88;;
40867;SDS011;26586;50.708;22.412;2023-04-06T07:24:11;7.57;;;5.43;;
40867;SDS011;26586;50.708;22.412;2023-04-06T07:26:38;8.48;;;4.95;;
40867;SDS011;26586;50.708;22.412;2023-04-06T07:29:04;7.85;;;4.35;;
40867;SDS011;26586;50.708;22.412;2023-04-06T07:31:30;7.22;;;3.90;;
40867;SDS011;26586;50.708;22.412;2023-04-06T07:33:56;6.57;;;4.40;;
40867;SDS011;26586;50.708;22.412;2023-04-06T07:36:23;7.47;;;4.50;;
40867;SDS011;26586;50.708;22.412;2023-04-06T07:38:49;10.48;;;5.90;;
40867;SDS011;26586;50.708;22.412;2023-04-06T07:41:15;11.03;;;5.27;;
40867;SDS011;26586;50.708;22.412;2023-04-06T07:43:42;6.47;;;3.47;;
40867;SDS011;26586;50.708;22.412;2023-04-06T07:46:08;8.40;;;5.20;;
40867;SDS011;26586;50.708;22.412;2023-04-06T07:48:34;16.13;;;10.02;;
40867;SDS011;26586;50.708;22.412;2023-04-06T07:51:01;13.07;;;7.57;;
40867;SDS011;26586;50.708;22.412;2023-04-06T07:53:28;8.55;;;5.88;;
40867;SDS011;26586;50.708;22.412;2023-04-06T07:55:55;5.37;;;3.93;;
40867;SDS011;26586;50.708;22.412;2023-04-06T07:58:21;5.88;;;3.70;;
40867;SDS011;26586;50.708;22.412;2023-04-06T08:00:47;6.30;;;3.67;;
40867;SDS011;26586;50.708;22.412;2023-04-06T08:03:13;8.07;;;4.93;;
40867;SDS011;26586;50.708;22.412;2023-04-06T08:05:40;6.17;;;4.23;;
40867;SDS011;26586;50.708;22.412;2023-04-06T08:08:06;9.23;;;4.65;;
40867;SDS011;26586;50.708;22.412;2023-04-06T08:10:32;9.17;;;4.63;;
40867;SDS011;26586;50.708;22.412;2023-04-06T08:12:59;6.25;;;4.63;;
40867;SDS011;26586;50.708;22.412;2023-04-06T08:15:26;8.55;;;5.90;;
40867;SDS011;26586;50.708;22.412;2023-04-06T08:17:52;8.90;;;5.18;;
40867;SDS011;26586;50.708;22.412;2023-04-06T08:20:19;10.38;;;6.60;;
40867;SDS011;26586;50.708;22.412;2023-04-06T08:22:45;9.98;;;5.70;;
40867;SDS011;26586;50.708;22.412;2023-04-06T08:25:11;9.82;;;5.43;;
40867;SDS011;26586;50.708;22.412;2023-04-06T08:27:37;10.65;;;6.18;;
40867;SDS011;26586;50.708;22.412;2023-04-06T08:30:04;9.88;;;6.05;;
40867;SDS011;26586;50.708;22.412;2023-04-06T08:32:30;11.97;;;6.53;;
40867;SDS011;26586;50.708;22.412;2023-04-06T08:34:56;7.40;;;4.90;;
40867;SDS011;26586;50.708;22.412;2023-04-06T08:37:22;8.13;;;5.53;;
40867;SDS011;26586;50.708;22.412;2023-04-06T08:39:49;9.57;;;4.67;;
40867;SDS011;26586;50.708;22.412;2023-04-06T08:42:19;9.05;;;5.68;;
40867;SDS011;26586;50.708;22.412;2023-04-06T08:44:48;6.38;;;4.28;;
40867;SDS011;26586;50.708;22.412;2023-04-06T08:47:16;5.38;;;3.55;;
40867;SDS011;26586;50.708;22.412;2023-04-06T08:49:42;9.65;;;4.88;;
40867;SDS011;26586;50.708;22.412;2023-04-06T08:52:10;7.90;;;5.85;;
40867;SDS011;26586;50.708;22.412;2023-04-06T08:54:37;6.57;;;4.13;;
40867;SDS011;26586;50.708;22.412;2023-04-06T08:57:04;7.50;;;4.25;;
40867;SDS011;26586;50.708;22.412;2023-04-06T08:59:31;4.95;;;3.85;;
40867;SDS011;26586;50.708;22.412;2023-04-06T09:01:57;8.73;;;5.78;;
40867;SDS011;26586;50.708;22.412;2023-04-06T09:04:28;8.82;;;5.07;;
40867;SDS011;26586;50.708;22.412;2023-04-06T09:06:54;7.15;;;3.60;;
40867;SDS011;26586;50.708;22.412;2023-04-06T09:09:20;6.27;;;2.43;;
40867;SDS011;26586;50.708;22.412;2023-04-06T09:11:48;5.25;;;3.15;;
40867;SDS011;26586;50.708;22.412;2023-04-06T09:14:16;5.72;;;3.92;;
40867;SDS011;26586;50.708;22.412;2023-04-06T09:16:43;4.28;;;2.65;;
40867;SDS011;26586;50.708;22.412;2023-04-06T09:19:11;7.88;;;3.75;;
40867;SDS011;26586;50.708;22.412;2023-04-06T09:21:38;7.18;;;4.47;;
40867;SDS011;26586;50.708;22.412;2023-04-06T09:24:06;9.00;;;4.97;;
40867;SDS011;26586;50.708;22.412;2023-04-06T09:26:43;8.38;;;5.05;;
40867;SDS011;26586;50.708;22.412;2023-04-06T09:29:21;7.10;;;5.40;;
40867;SDS011;26586;50.708;22.412;2023-04-06T09:31:48;7.32;;;3.95;;
40867;SDS011;26586;50.708;22.412;2023-04-06T09:34:21;11.80;;;4.77;;
40867;SDS011;26586;50.708;22.412;2023-04-06T09:36:49;3.58;;;2.00;;
40867;SDS011;26586;50.708;22.412;2023-04-06T09:39:20;3.42;;;2.58;;
40867;SDS011;26586;50.708;22.412;2023-04-06T09:41:49;5.22;;;3.42;;
40867;SDS011;26586;50.708;22.412;2023-04-06T09:44:17;6.78;;;3.67;;
40867;SDS011;26586;50.708;22.412;2023-04-06T09:46:44;8.40;;;4.38;;
40867;SDS011;26586;50.708;22.412;2023-04-06T09:49:11;15.73;;;7.10;;
40867;SDS011;26586;50.708;22.412;2023-04-06T09:51:39;12.57;;;5.72;;
40867;SDS011;26586;50.708;22.412;2023-04-06T09:54:20;5.93;;;3.00;;
40867;SDS011;26586;50.708;22.412;2023-04-06T09:56:53;6.85;;;3.33;;
40867;SDS011;26586;50.708;22.412;2023-04-06T09:59:50;3.95;;;2.20;;
40867;SDS011;26586;50.708;22.412;2023-04-06T10:02:36;6.45;;;4.40;;
40867;SDS011;26586;50.708;22.412;2023-04-06T10:05:30;8.52;;;4.28;;
40867;SDS011;26586;50.708;22.412;2023-04-06T10:08:09;12.48;;;5.95;;
40867;SDS011;26586;50.708;22.412;2023-04-06T10:10:36;20.70;;;9.35;;
40867;SDS011;26586;50.708;22.412;2023-04-06T10:13:03;9.38;;;5.90;;
40867;SDS011;26586;50.708;22.412;2023-04-06T10:15:30;9.32;;;5.43;;
40867;SDS011;26586;50.708;22.412;2023-04-06T10:17:57;11.13;;;7.13;;
40867;SDS011;26586;50.708;22.412;2023-04-06T10:25:35;8.02;;;4.20;;
40867;SDS011;26586;50.708;22.412;2023-04-06T10:28:06;7.40;;;4.43;;
40867;SDS011;26586;50.708;22.412;2023-04-06T10:30:34;8.48;;;6.00;;
40867;SDS011;26586;50.708;22.412;2023-04-06T10:33:17;7.28;;;5.05;;
40867;SDS011;26586;50.708;22.412;2023-04-06T10:35:45;7.10;;;5.38;;
40867;SDS011;26586;50.708;22.412;2023-04-06T10:38:11;9.63;;;5.78;;
40867;SDS011;26586;50.708;22.412;2023-04-06T10:40:40;5.38;;;3.25;;
40867;SDS011;26586;50.708;22.412;2023-04-06T10:43:22;7.18;;;3.25;;
40867;SDS011;26586;50.708;22.412;2023-04-06T10:45:55;8.73;;;5.32;;
40867;SDS011;26586;50.708;22.412;2023-04-06T10:48:23;15.07;;;8.02;;
40867;SDS011;26586;50.708;22.412;2023-04-06T10:50:51;10.60;;;5.60;;
40867;SDS011;26586;50.708;22.412;2023-04-06T10:55:51;12.63;;;7.78;;
40867;SDS011;26586;50.708;22.412;2023-04-06T10:58:17;9.90;;;5.68;;
40867;SDS011;26586;50.708;22.412;2023-04-06T11:00:45;5.57;;;2.65;;
40867;SDS011;26586;50.708;22.412;2023-04-06T11:05:38;13.25;;;7.53;;
40867;SDS011;26586;50.708;22.412;2023-04-06T11:08:08;15.77;;;10.77;;
40867;SDS011;26586;50.708;22.412;2023-04-06T11:10:38;5.85;;;4.20;;
40867;SDS011;26586;50.708;22.412;2023-04-06T11:13:04;6.07;;;4.20;;
40867;SDS011;26586;50.708;22.412;2023-04-06T11:15:33;7.70;;;4.93;;
40867;SDS011;26586;50.708;22.412;2023-04-06T11:18:03;8.43;;;4.55;;
40867;SDS011;26586;50.708;22.412;2023-04-06T11:20:30;5.50;;;3.28;;
40867;SDS011;26586;50.708;22.412;2023-04-06T11:22:56;8.23;;;4.82;;
40867;SDS011;26586;50.708;22.412;2023-04-06T11:25:24;3.63;;;2.75;;
40867;SDS011;26586;50.708;22.412;2023-04-06T11:27:53;5.65;;;3.35;;
40867;SDS011;26586;50.708;22.412;2023-04-06T11:30:19;7.22;;;4.50;;
40867;SDS011;26586;50.708;22.412;2023-04-06T11:32:46;12.27;;;6.45;;
40867;SDS011;26586;50.708;22.412;2023-04-06T11:35:21;16.70;;;7.63;;
40867;SDS011;26586;50.708;22.412;2023-04-06T11:37:49;4.35;;;1.60;;
40867;SDS011;26586;50.708;22.412;2023-04-06T11:45:19;5.75;;;3.55;;
40867;SDS011;26586;50.708;22.412;2023-04-06T11:47:54;9.05;;;5.43;;
40867;SDS011;26586;50.708;22.412;2023-04-06T11:50:25;8.52;;;6.88;;
40867;SDS011;26586;50.708;22.412;2023-04-06T11:53:00;3.97;;;2.40;;
40867;SDS011;26586;50.708;22.412;2023-04-06T11:55:28;5.72;;;3.45;;
40867;SDS011;26586;50.708;22.412;2023-04-06T11:57:54;12.63;;;6.93;;
40867;SDS011;26586;50.708;22.412;2023-04-06T12:00:21;10.70;;;6.37;;
40867;SDS011;26586;50.708;22.412;2023-04-06T12:02:48;17.38;;;9.23;;
40867;SDS011;26586;50.708;22.412;2023-04-06T12:05:14;15.15;;;8.63;;
40867;SDS011;26586;50.708;22.412;2023-04-06T12:07:41;19.10;;;11.10;;
40867;SDS011;26586;50.708;22.412;2023-04-06T12:10:07;17.17;;;10.73;;
40867;SDS011;26586;50.708;22.412;2023-04-06T12:12:33;15.97;;;9.57;;
40867;SDS011;26586;50.708;22.412;2023-04-06T12:15:00;12.52;;;7.57;;
40867;SDS011;26586;50.708;22.412;2023-04-06T12:17:26;10.45;;;7.45;;
40867;SDS011;26586;50.708;22.412;2023-04-06T12:19:52;19.60;;;10.30;;
40867;SDS011;26586;50.708;22.412;2023-04-06T12:22:18;11.82;;;7.57;;
40867;SDS011;26586;50.708;22.412;2023-04-06T12:24:45;9.30;;;6.43;;
40867;SDS011;26586;50.708;22.412;2023-04-06T12:27:11;14.07;;;9.00;;
40867;SDS011;26586;50.708;22.412;2023-04-06T12:29:37;10.67;;;5.70;;
40867;SDS011;26586;50.708;22.412;2023-04-06T12:32:04;17.05;;;9.05;;
40867;SDS011;26586;50.708;22.412;2023-04-06T12:34:31;13.23;;;8.90;;
40867;SDS011;26586;50.708;22.412;2023-04-06T12:36:57;10.95;;;6.43;;
40867;SDS011;26586;50.708;22.412;2023-04-06T12:39:24;11.03;;;5.40;;
40867;SDS011;26586;50.708;22.412;2023-04-06T12:41:50;11.93;;;5.72;;
40867;SDS011;26586;50.708;22.412;2023-04-06T12:44:16;5.33;;;3.33;;
40867;SDS011;26586;50.708;22.412;2023-04-06T12:46:43;9.40;;;5.88;;
40867;SDS011;26586;50.708;22.412;2023-04-06T12:49:09;8.43;;;4.87;;
40867;SDS011;26586;50.708;22.412;2023-04-06T12:51:35;12.98;;;6.55;;
40867;SDS011;26586;50.708;22.412;2023-04-06T12:54:02;7.77;;;5.37;;
40867;SDS011;26586;50.708;22.412;2023-04-06T12:56:28;11.93;;;7.45;;
40867;SDS011;26586;50.708;22.412;2023-04-06T12:58:54;12.03;;;8.07;;
40867;SDS011;26586;50.708;22.412;2023-04-06T13:01:20;14.07;;;8.67;;
40867;SDS011;26586;50.708;22.412;2023-04-06T13:03:47;8.73;;;5.53;;
40867;SDS011;26586;50.708;22.412;2023-04-06T13:06:13;7.35;;;4.50;;
40867;SDS011;26586;50.708;22.412;2023-04-06T13:08:40;11.85;;;8.32;;
40867;SDS011;26586;50.708;22.412;2023-04-06T13:11:07;13.98;;;8.82;;
40867;SDS011;26586;50.708;22.412;2023-04-06T13:13:34;16.27;;;8.85;;
40867;SDS011;26586;50.708;22.412;2023-04-06T13:16:02;10.20;;;6.90;;
40867;SDS011;26586;50.708;22.412;2023-04-06T13:18:30;10.57;;;6.85;;
40867;SDS011;26586;50.708;22.412;2023-04-06T13:20:57;4.95;;;3.45;;
40867;SDS011;26586;50.708;22.412;2023-04-06T13:23:25;7.72;;;4.05;;
40867;SDS011;26586;50.708;22.412;2023-04-06T13:25:58;7.05;;;3.78;;
40867;SDS011;26586;50.708;22.412;2023-04-06T13:28:32;12.60;;;6.53;;
40867;SDS011;26586;50.708;22.412;2023-04-06T13:30:59;9.73;;;6.93;;
40867;SDS011;26586;50.708;22.412;2023-04-06T13:33:27;8.68;;;5.63;;
40867;SDS011;26586;50.708;22.412;2023-04-06T13:35:54;10.35;;;7.60;;
40867;SDS011;26586;50.708;22.412;2023-04-06T13:38:21;11.30;;;8.63;;
40867;SDS011;26586;50.708;22.412;2023-04-06T13:40:49;11.65;;;8.45;;
40867;SDS011;26586;50.708;22.412;2023-04-06T13:43:16;10.43;;;7.75;;
40867;SDS011;26586;50.708;22.412;2023-04-06T13:45:49;12.35;;;8.55;;
40867;SDS011;26586;50.708;22.412;2023-04-06T13:48:17;14.55;;;8.05;;
40867;SDS011;26586;50.708;22.412;2023-04-06T13:50:43;13.02;;;8.95;;
40867;SDS011;26586;50.708;22.412;2023-04-06T13:53:11;9.60;;;6.07;;
40867;SDS011;26586;50.708;22.412;2023-04-06T13:55:37;12.30;;;6.68;;
40867;SDS011;26586;50.708;22.412;2023-04-06T13:58:03;15.70;;;9.13;;
40867;SDS011;26586;50.708;22.412;2023-04-06T14:00:29;10.60;;;6.22;;
40867;SDS011;26586;50.708;22.412;2023-04-06T14:02:56;22.97;;;11.27;;
40867;SDS011;26586;50.708;22.412;2023-04-06T14:05:22;19.55;;;11.52;;
40867;SDS011;26586;50.708;22.412;2023-04-06T14:07:49;15.48;;;8.40;;
40867;SDS011;26586;50.708;22.412;2023-04-06T14:10:15;16.77;;;8.23;;
40867;SDS011;26586;50.708;22.412;2023-04-06T14:12:45;23.00;;;11.83;;
40867;SDS011;26586;50.708;22.412;2023-04-06T14:15:11;25.52;;;13.15;;
40867;SDS011;26586;50.708;22.412;2023-04-06T14:17:38;15.07;;;9.05;;
40867;SDS011;26586;50.708;22.412;2023-04-06T14:20:05;17.13;;;8.93;;
40867;SDS011;26586;50.708;22.412;2023-04-06T14:22:32;20.35;;;9.38;;
40867;SDS011;26586;50.708;22.412;2023-04-06T14:24:58;13.45;;;7.15;;
40867;SDS011;26586;50.708;22.412;2023-04-06T14:27:25;18.50;;;9.60;;
40867;SDS011;26586;50.708;22.412;2023-04-06T14:29:51;16.77;;;8.73;;
40867;SDS011;26586;50.708;22.412;2023-04-06T14:32:19;13.13;;;7.60;;
40867;SDS011;26586;50.708;22.412;2023-04-06T14:34:46;12.77;;;6.22;;
40867;SDS011;26586;50.708;22.412;2023-04-06T14:37:12;12.65;;;7.55;;
40867;SDS011;26586;50.708;22.412;2023-04-06T14:39:38;15.05;;;8.50;;
40867;SDS011;26586;50.708;22.412;2023-04-06T14:42:05;15.55;;;9.00;;
40867;SDS011;26586;50.708;22.412;2023-04-06T14:44:32;14.10;;;8.27;;
40867;SDS011;26586;50.708;22.412;2023-04-06T14:47:01;19.83;;;12.07;;
40867;SDS011;26586;50.708;22.412;2023-04-06T14:49:29;21.70;;;12.90;;
40867;SDS011;26586;50.708;22.412;2023-04-06T14:51:55;18.05;;;10.20;;
40867;SDS011;26586;50.708;22.412;2023-04-06T14:54:22;32.20;;;17.02;;
40867;SDS011;26586;50.708;22.412;2023-04-06T14:56:48;19.30;;;10.70;;